Time;durP1;ratioP1;P1;durP2;ratioP2;P2;SDS_P1;SDS_P2;PMS_P1;PMS_P2;Temp;Humidity;BMP_temperature;BMP_pressure;BME280_temperature;BME280_humidity;BME280_pressure;Samples;Min_cycle;Max_cycle;Signal;HPM_P1;HPM_P2
2022/05/02 00:01:07;;;;;;;41.90;24.40;;;6.70;99.90;;;;;;5173487;28;20046;-75
2022/05/02 00:03:40;;;;;;;41.58;23.83;;;6.70;99.90;;;;;;5172644;28;21892;-75
2022/05/02 00:06:12;;;;;;;37.38;23.48;;;6.70;99.90;;;;;;5176211;28;20054;-74
2022/05/02 00:08:45;;;;;;;41.88;23.13;;;6.60;99.90;;;;;;5169036;28;20034;-74
2022/05/02 00:11:17;;;;;;;46.30;25.73;;;6.70;99.90;;;;;;5170652;28;20046;-75
2022/05/02 00:13:50;;;;;;;38.25;22.70;;;6.60;99.90;;;;;;5173861;28;20052;-75
2022/05/02 00:16:23;;;;;;;36.80;23.40;;;6.50;99.90;;;;;;5156766;28;20143;-75
2022/05/02 00:18:55;;;;;;;33.83;21.60;;;6.50;99.90;;;;;;5173760;28;20052;-74
2022/05/02 00:21:28;;;;;;;41.50;23.65;;;6.50;99.90;;;;;;5172003;28;20584;-74
2022/05/02 00:24:01;;;;;;;35.40;22.23;;;6.50;99.90;;;;;;5163853;28;20616;-74
2022/05/02 00:26:33;;;;;;;36.47;21.60;;;6.40;99.90;;;;;;5173664;28;20050;-74
2022/05/02 00:29:05;;;;;;;41.08;24.27;;;6.50;99.90;;;;;;5166913;28;20049;-74
2022/05/02 00:31:38;;;;;;;41.35;24.55;;;6.50;99.90;;;;;;5192114;28;20044;-75
2022/05/02 00:34:10;;;;;;;44.08;24.98;;;6.40;99.90;;;;;;5176980;28;20049;-75
2022/05/02 00:36:43;;;;;;;49.60;26.42;;;6.40;99.90;;;;;;5176849;28;20053;-74
2022/05/02 00:39:16;;;;;;;43.78;25.27;;;6.30;99.90;;;;;;5181113;28;20051;-74
2022/05/02 00:41:49;;;;;;;49.33;26.83;;;6.30;99.90;;;;;;5182565;28;20064;-75
2022/05/02 00:44:21;;;;;;;38.85;22.33;;;6.30;99.90;;;;;;5175327;28;20049;-75
2022/05/02 00:46:54;;;;;;;40.22;24.42;;;6.30;99.90;;;;;;5186370;28;20042;-75
2022/05/02 00:49:26;;;;;;;46.08;26.25;;;6.20;99.90;;;;;;5175273;28;20052;-74
2022/05/02 00:51:58;;;;;;;36.67;22.35;;;6.20;99.90;;;;;;5178497;28;20048;-75
2022/05/02 00:54:32;;;;;;;40.20;23.17;;;6.10;99.90;;;;;;5185115;28;20050;-75
2022/05/02 00:57:06;;;;;;;;;;;6.10;99.90;;;;;;5195646;28;20042;-75
2022/05/02 00:59:39;;;;;;;37.42;22.45;;;6.00;99.90;;;;;;5170688;28;19929;-75
2022/05/02 01:02:14;;;;;;;48.30;24.50;;;6.00;99.90;;;;;;5189594;28;20248;-74
2022/05/02 01:04:47;;;;;;;42.08;23.95;;;5.90;99.90;;;;;;5182493;28;20493;-74
2022/05/02 01:07:20;;;;;;;38.50;23.42;;;5.90;99.90;;;;;;5180405;28;20056;-75
2022/05/02 01:09:53;;;;;;;46.22;25.55;;;5.90;99.90;;;;;;5203570;23;20448;-75
2022/05/02 01:12:26;;;;;;;80.15;38.72;;;6.00;99.90;;;;;;5189219;28;20335;-72
2022/05/02 01:14:58;;;;;;;72.57;37.63;;;6.00;99.90;;;;;;5172558;28;20064;-74
2022/05/02 01:17:31;;;;;;;59.35;31.98;;;6.00;99.90;;;;;;5187036;28;20216;-72
2022/05/02 01:20:11;;;;;;;58.53;32.13;;;6.00;99.90;;;;;;5182356;28;20048;-72
2022/05/02 01:22:43;;;;;;;47.25;26.25;;;6.00;99.90;;;;;;5186622;28;20049;-73
2022/05/02 01:25:16;;;;;;;51.00;28.10;;;6.00;99.90;;;;;;5198782;28;20045;-73
2022/05/02 01:27:48;;;;;;;43.35;25.67;;;6.00;99.90;;;;;;5182637;28;20056;-73
2022/05/02 01:30:21;;;;;;;42.65;24.77;;;6.10;99.90;;;;;;5175825;28;20042;-73
2022/05/02 01:32:53;;;;;;;35.70;22.20;;;6.00;99.90;;;;;;5185656;28;20049;-74
2022/05/02 01:35:26;;;;;;;46.13;24.90;;;6.00;99.90;;;;;;5181147;28;20057;-73
2022/05/02 01:37:58;;;;;;;47.35;25.05;;;6.00;99.90;;;;;;5185881;28;20360;-73
2022/05/02 01:40:31;;;;;;;37.75;21.55;;;5.90;99.90;;;;;;5184902;28;20050;-73
2022/05/02 01:43:04;;;;;;;37.53;21.17;;;5.90;99.90;;;;;;5191638;28;20537;-73
2022/05/02 01:45:36;;;;;;;39.17;23.17;;;5.90;99.90;;;;;;5182218;28;20057;-73
2022/05/02 01:48:09;;;;;;;46.20;25.35;;;5.90;99.90;;;;;;5185788;28;20041;-73
2022/05/02 01:50:42;;;;;;;37.97;21.70;;;5.90;99.90;;;;;;5179090;28;20050;-74
2022/05/02 01:53:14;;;;;;;39.83;24.47;;;5.90;99.90;;;;;;5180399;28;21321;-74
2022/05/02 01:55:47;;;;;;;43.17;23.83;;;5.90;99.90;;;;;;5177213;28;25859;-74
2022/05/02 01:58:20;;;;;;;36.33;22.10;;;5.90;99.90;;;;;;5189177;28;20060;-73
2022/05/02 02:00:53;;;;;;;42.80;24.90;;;5.90;99.90;;;;;;5174860;28;20041;-73
2022/05/02 02:03:25;;;;;;;44.58;25.38;;;5.80;99.90;;;;;;5184285;28;20426;-73
2022/05/02 02:05:58;;;;;;;37.63;21.90;;;5.80;99.90;;;;;;5177600;28;20049;-74
2022/05/02 02:08:34;;;;;;;48.63;25.10;;;5.80;99.90;;;;;;5181703;28;20049;-72
2022/05/02 02:11:09;;;;;;;42.03;23.45;;;5.80;99.90;;;;;;5180485;28;20045;-73
2022/05/02 02:13:41;;;;;;;36.40;21.65;;;5.70;99.90;;;;;;5186372;28;20506;-73
2022/05/02 02:16:13;;;;;;;41.38;23.70;;;5.70;99.90;;;;;;5179481;28;20064;-73
2022/05/02 02:18:46;;;;;;;42.33;24.08;;;5.80;99.90;;;;;;5185508;28;20438;-72
2022/05/02 02:21:19;;;;;;;45.77;23.80;;;5.80;99.90;;;;;;5175518;28;20042;-73
2022/05/02 02:23:52;;;;;;;35.15;20.42;;;5.70;99.90;;;;;;5182326;28;20054;-73
2022/05/02 02:26:24;;;;;;;38.55;20.30;;;5.70;99.90;;;;;;5186651;28;20079;-73
2022/05/02 02:28:58;;;;;;;33.70;20.17;;;5.70;99.90;;;;;;5180202;28;20046;-73
2022/05/02 02:31:30;;;;;;;34.53;20.02;;;5.70;99.90;;;;;;5184951;28;20377;-73
2022/05/02 02:34:03;;;;;;;35.63;21.13;;;5.70;99.90;;;;;;5168742;28;20068;-73
2022/05/02 02:36:35;;;;;;;38.25;21.67;;;5.60;99.90;;;;;;5174640;28;20049;-73
2022/05/02 02:39:08;;;;;;;37.88;20.38;;;5.60;99.90;;;;;;5180429;28;20052;-73
2022/05/02 02:41:40;;;;;;;35.92;21.23;;;5.60;99.90;;;;;;5183623;28;20049;-72
2022/05/02 02:44:13;;;;;;;36.72;21.45;;;5.50;99.90;;;;;;5170783;28;20080;-73
2022/05/02 02:46:46;;;;;;;46.70;25.03;;;5.60;99.90;;;;;;5161836;28;20049;-73
2022/05/02 02:49:18;;;;;;;33.88;20.50;;;5.50;99.90;;;;;;5168759;28;20053;-72
2022/05/02 02:51:51;;;;;;;33.10;19.90;;;5.50;99.90;;;;;;5171613;28;20056;-73
2022/05/02 02:54:23;;;;;;;35.88;20.85;;;5.50;99.90;;;;;;5171609;28;20084;-73
2022/05/02 02:56:56;;;;;;;39.55;22.17;;;5.40;99.90;;;;;;5190217;28;20516;-72
2022/05/02 02:59:28;;;;;;;36.17;20.10;;;5.40;99.90;;;;;;5170708;28;20054;-73
2022/05/02 03:02:01;;;;;;;29.75;18.98;;;5.40;99.90;;;;;;5167527;28;20053;-73
2022/05/02 03:07:27;;;;;;;31.90;18.55;;;5.40;99.90;;;;;;5182671;28;20092;-71
2022/05/02 03:10:00;;;;;;;34.00;19.97;;;5.30;99.90;;;;;;5184616;28;20048;-72
2022/05/02 03:12:34;;;;;;;32.95;18.65;;;5.30;99.90;;;;;;5182359;28;20073;-72
2022/05/02 03:15:07;;;;;;;32.55;18.60;;;5.30;99.90;;;;;;5179187;28;20064;-72
2022/05/02 03:17:39;;;;;;;34.22;20.35;;;5.30;99.90;;;;;;5181587;28;20045;-71
2022/05/02 03:20:12;;;;;;;34.60;18.75;;;5.20;99.90;;;;;;5184603;28;20049;-71
2022/05/02 03:22:45;;;;;;;29.42;19.15;;;5.20;99.90;;;;;;5178868;28;21275;-71
2022/05/02 03:25:17;;;;;;;35.92;20.25;;;5.20;99.90;;;;;;5179653;28;20050;-71
2022/05/02 03:27:50;;;;;;;30.15;18.60;;;5.20;99.90;;;;;;5181457;28;20042;-72
2022/05/02 03:30:23;;;;;;;30.17;18.40;;;5.20;99.90;;;;;;5180038;28;20053;-71
2022/05/02 03:32:57;;;;;;;31.42;17.98;;;5.20;99.90;;;;;;5176125;28;20048;-71
2022/05/02 03:35:31;;;;;;;36.60;19.75;;;5.30;99.90;;;;;;5174711;28;20041;-71
2022/05/02 03:38:04;;;;;;;28.10;17.30;;;5.30;99.90;;;;;;5175911;28;20046;-72
2022/05/02 03:40:36;;;;;;;35.47;20.10;;;5.30;99.90;;;;;;5176364;28;20056;-70
2022/05/02 03:43:08;;;;;;;29.25;17.42;;;5.20;99.90;;;;;;5179443;28;20053;-70
2022/05/02 03:45:41;;;;;;;24.45;15.60;;;5.10;99.90;;;;;;5175996;28;20060;-70
2022/05/02 03:48:13;;;;;;;37.85;20.92;;;5.20;99.90;;;;;;5176355;28;20399;-72
2022/05/02 03:50:46;;;;;;;26.75;16.30;;;5.20;99.90;;;;;;5180817;28;20046;-71
2022/05/02 03:53:19;;;;;;;29.63;17.02;;;5.20;99.90;;;;;;5180805;28;20045;-71
2022/05/02 03:55:51;;;;;;;28.90;17.20;;;5.30;99.90;;;;;;5179539;28;20048;-71
2022/05/02 03:58:23;;;;;;;31.58;17.42;;;5.30;99.90;;;;;;5178965;28;20049;-70
2022/05/02 04:00:56;;;;;;;31.77;18.27;;;5.30;99.90;;;;;;5181819;28;20056;-70
2022/05/02 04:03:29;;;;;;;29.05;17.55;;;5.20;99.90;;;;;;5175947;28;20044;-70
2022/05/02 04:06:02;;;;;;;27.20;17.50;;;5.20;99.90;;;;;;5173862;28;20305;-71
2022/05/02 04:08:34;;;;;;;27.80;16.10;;;5.20;99.90;;;;;;5172901;28;20061;-71
2022/05/02 04:11:07;;;;;;;28.00;16.33;;;5.20;99.90;;;;;;5179705;28;20931;-70
2022/05/02 04:13:39;;;;;;;29.23;17.88;;;5.20;99.90;;;;;;5181680;28;20056;-71
2022/05/02 04:16:13;;;;;;;22.92;14.43;;;5.20;99.90;;;;;;5180971;28;20041;-71
2022/05/02 04:18:45;;;;;;;27.70;16.58;;;5.20;99.90;;;;;;5175996;28;20042;-71
2022/05/02 04:21:18;;;;;;;28.77;17.60;;;5.30;99.90;;;;;;5180438;28;20374;-71
2022/05/02 04:23:50;;;;;;;34.60;17.98;;;5.30;99.90;;;;;;5173749;28;20049;-71
2022/05/02 04:26:23;;;;;;;32.10;19.17;;;5.30;99.90;;;;;;5177002;28;20629;-71
2022/05/02 04:28:55;;;;;;;30.38;18.20;;;5.30;99.90;;;;;;5173857;28;20065;-71
2022/05/02 04:31:28;;;;;;;28.00;17.08;;;5.40;99.90;;;;;;5176859;28;20493;-72
2022/05/02 04:34:00;;;;;;;28.65;16.60;;;5.40;99.90;;;;;;5176871;28;20757;-71
2022/05/02 04:36:32;;;;;;;31.60;17.90;;;5.40;99.90;;;;;;5174553;28;20045;-71
2022/05/02 04:39:05;;;;;;;31.23;17.20;;;5.50;99.90;;;;;;5171600;28;20592;-68
2022/05/02 04:41:37;;;;;;;28.02;17.38;;;5.50;99.90;;;;;;5171440;28;20477;-70
2022/05/02 04:44:11;;;;;;;30.80;18.75;;;5.70;99.90;;;;;;5177979;28;20051;-69
2022/05/02 04:46:43;;;;;;;25.27;15.70;;;5.70;99.90;;;;;;5150016;28;20056;-70
2022/05/02 04:49:16;;;;;;;34.08;18.15;;;5.70;99.90;;;;;;5164083;28;20409;-67
2022/05/02 04:51:48;;;;;;;30.23;18.10;;;5.80;99.90;;;;;;5177960;28;20050;-68
2022/05/02 04:54:21;;;;;;;29.35;18.35;;;5.80;99.90;;;;;;5171713;28;20057;-67
2022/05/02 04:56:54;;;;;;;29.02;18.05;;;5.90;99.90;;;;;;5173824;28;20049;-68
2022/05/02 04:59:30;;;;;;;33.38;18.73;;;5.90;99.90;;;;;;5174121;28;20057;-68
2022/05/02 05:02:04;;;;;;;29.90;18.90;;;6.00;99.90;;;;;;5177218;28;20053;-68
2022/05/02 05:04:36;;;;;;;31.35;18.90;;;6.00;99.90;;;;;;5179084;28;20049;-67
2022/05/02 05:07:09;;;;;;;34.55;19.65;;;6.10;99.90;;;;;;5181900;28;20064;-67
2022/05/02 05:09:41;;;;;;;30.90;19.33;;;6.20;99.90;;;;;;5179506;28;20486;-68
2022/05/02 05:12:52;;;;;;;31.10;18.58;;;6.20;99.90;;;;;;5178432;28;20048;-67
2022/05/02 05:18:48;;;;;;;29.73;18.08;;;6.30;99.90;;;;;;5178296;28;20045;-66
2022/05/02 05:21:55;;;;;;;28.75;17.25;;;6.30;99.90;;;;;;5172183;28;20053;-68
2022/05/02 05:24:46;;;;;;;27.25;17.35;;;6.40;99.90;;;;;;5184544;28;20056;-67
2022/05/02 05:27:31;;;;;;;34.17;19.08;;;6.40;99.90;;;;;;5175524;28;20050;-66
2022/05/02 05:30:05;;;;;;;26.23;17.08;;;6.50;99.90;;;;;;5180936;28;20041;-67
2022/05/02 05:33:06;;;;;;;28.27;18.08;;;6.50;99.90;;;;;;5186181;28;20049;-68
2022/05/02 05:36:30;;;;;;;27.50;16.83;;;6.60;99.90;;;;;;5168915;28;20044;-67
2022/05/02 05:39:10;;;;;;;25.20;16.30;;;6.60;99.90;;;;;;5160216;28;20045;-67
2022/05/02 05:42:14;;;;;;;28.33;17.98;;;6.60;99.90;;;;;;5189257;28;20053;-67
2022/05/02 05:45:03;;;;;;;33.40;18.52;;;6.70;99.90;;;;;;5167903;28;20045;-67
2022/05/02 05:47:54;;;;;;;27.83;16.38;;;6.80;99.90;;;;;;5187159;28;20061;-67
2022/05/02 05:50:31;;;;;;;26.65;16.45;;;6.90;99.90;;;;;;5170014;28;20040;-67
2022/05/02 05:53:35;;;;;;;29.25;18.08;;;7.00;99.90;;;;;;5190969;28;20046;-68
2022/05/02 05:56:43;;;;;;;25.17;15.48;;;7.00;99.90;;;;;;5189360;28;20068;-67
2022/05/02 05:59:32;;;;;;;23.55;15.85;;;7.10;99.90;;;;;;5186482;28;20057;-68
2022/05/02 06:02:13;;;;;;;30.08;17.35;;;7.20;99.90;;;;;;5181262;28;20076;-66
2022/05/02 06:04:50;;;;;;;29.13;15.90;;;7.30;99.90;;;;;;5179874;28;20497;-68
2022/05/02 06:07:28;;;;;;;25.17;16.27;;;7.50;99.90;;;;;;5192467;28;20049;-68
2022/05/02 06:10:02;;;;;;;30.60;18.13;;;7.60;99.90;;;;;;5188749;28;20041;-68
2022/05/02 06:12:37;;;;;;;27.15;17.55;;;7.60;99.90;;;;;;5190170;28;20053;-67
2022/05/02 06:18:29;;;;;;;28.40;17.92;;;7.80;99.90;;;;;;5183202;28;20050;-68
2022/05/02 06:21:07;;;;;;;28.92;16.98;;;8.00;99.90;;;;;;5187567;28;21255;-68
2022/05/02 06:23:44;;;;;;;26.48;17.58;;;8.20;99.90;;;;;;5187342;28;20060;-68
2022/05/02 06:26:21;;;;;;;27.08;16.52;;;8.30;99.90;;;;;;5188331;28;20288;-66
2022/05/02 06:28:54;;;;;;;28.08;17.60;;;8.30;99.90;;;;;;5186547;28;20057;-67
2022/05/02 06:31:29;;;;;;;24.17;15.85;;;8.40;99.90;;;;;;5186971;28;20693;-68
2022/05/02 06:34:03;;;;;;;24.92;16.70;;;8.60;99.90;;;;;;5184955;28;20056;-67
2022/05/02 06:37:06;;;;;;;28.05;15.93;;;8.70;99.90;;;;;;5181818;28;20553;-68
2022/05/02 06:39:51;;;;;;;28.85;17.73;;;8.80;99.90;;;;;;5187947;28;20060;-70
2022/05/02 06:42:40;;;;;;;34.72;16.42;;;9.00;99.90;;;;;;5191156;28;20191;-67
2022/05/02 06:45:30;;;;;;;29.35;18.65;;;9.00;99.90;;;;;;5190655;28;20572;-66
2022/05/02 06:48:14;;;;;;;30.67;19.27;;;9.10;99.90;;;;;;5189906;28;20045;-67
2022/05/02 06:50:50;;;;;;;28.77;18.38;;;9.20;99.90;;;;;;5191251;28;20581;-68
2022/05/02 06:53:56;;;;;;;35.47;20.65;;;9.30;99.90;;;;;;5191378;28;20962;-67
2022/05/02 06:56:56;;;;;;;37.53;22.23;;;9.50;99.90;;;;;;5190804;28;20052;-66
2022/05/02 06:59:54;;;;;;;33.22;20.13;;;9.60;99.90;;;;;;5190739;28;20064;-67
2022/05/02 07:02:54;;;;;;;34.85;21.33;;;9.80;99.90;;;;;;5191333;28;20417;-68
2022/05/02 07:05:48;;;;;;;41.67;24.48;;;10.20;99.90;;;;;;5192447;28;20037;-66
2022/05/02 07:08:33;;;;;;;43.22;25.85;;;10.40;99.90;;;;;;5191192;28;20045;-67
2022/05/02 07:11:08;;;;;;;39.53;24.48;;;10.70;99.90;;;;;;5186714;28;20075;-67
2022/05/02 07:13:54;;;;;;;44.25;24.67;;;11.00;99.90;;;;;;5187099;28;20045;-74
2022/05/02 07:16:29;;;;;;;42.28;25.85;;;11.20;99.90;;;;;;5188467;28;20054;-68
2022/05/02 07:19:11;;;;;;;46.25;25.77;;;11.30;99.90;;;;;;5186340;28;20052;-68
2022/05/02 07:22:11;;;;;;;44.38;26.35;;;11.50;99.90;;;;;;5185752;28;20057;-68
2022/05/02 07:25:24;;;;;;;49.50;28.00;;;11.70;99.90;;;;;;5190105;28;20049;-67
2022/05/02 07:28:05;;;;;;;48.45;28.42;;;11.90;99.90;;;;;;5110439;28;20063;-69
2022/05/02 07:30:39;;;;;;;44.63;27.23;;;12.00;99.90;;;;;;5127303;28;20062;-69
2022/05/02 07:33:12;;;;;;;46.13;28.45;;;12.20;99.90;;;;;;5167503;28;20045;-69
2022/05/02 07:35:47;;;;;;;46.63;27.08;;;12.30;99.90;;;;;;5187706;28;20049;-69
2022/05/02 07:38:21;;;;;;;49.08;28.63;;;12.40;99.90;;;;;;5184163;28;20046;-66
2022/05/02 07:43:49;;;;;;;50.65;28.00;;;12.50;99.90;;;;;;5186198;28;20045;-67
2022/05/02 07:46:28;;;;;;;47.00;26.98;;;12.70;99.90;;;;;;5186594;28;20518;-67
2022/05/02 07:49:03;;;;;;;45.33;26.95;;;12.90;99.90;;;;;;5185301;28;20161;-67
2022/05/02 07:51:42;;;;;;;42.47;26.38;;;12.90;99.90;;;;;;5185779;28;20041;-69
2022/05/02 07:54:18;;;;;;;40.75;24.65;;;12.90;99.90;;;;;;5184184;28;20041;-68
2022/05/02 07:56:52;;;;;;;44.15;27.13;;;12.90;99.90;;;;;;5183037;28;20049;-68
2022/05/02 07:59:29;;;;;;;41.90;25.77;;;12.90;99.90;;;;;;5186622;28;20041;-68
2022/05/02 08:02:02;;;;;;;37.95;23.42;;;13.00;99.90;;;;;;5185470;28;20493;-68
2022/05/02 08:04:42;;;;;;;40.70;25.38;;;13.00;99.90;;;;;;5186184;28;20045;-67
2022/05/02 08:07:29;;;;;;;43.53;24.70;;;13.00;99.90;;;;;;5185205;28;20541;-68
2022/05/02 08:10:22;;;;;;;40.40;25.60;;;13.20;99.90;;;;;;5186672;28;20055;-67
2022/05/02 08:12:57;;;;;;;40.30;25.52;;;13.30;99.90;;;;;;5185259;28;20053;-69
2022/05/02 08:15:37;;;;;;;43.28;27.05;;;13.30;99.90;;;;;;5187328;28;20037;-67
2022/05/02 08:18:35;;;;;;;37.53;25.48;;;13.50;99.90;;;;;;5185145;28;20041;-66
2022/05/02 08:21:15;;;;;;;35.45;23.30;;;13.70;99.90;;;;;;5190268;28;20045;-68
2022/05/02 08:27:24;;;;;;;38.55;22.75;;;13.90;99.90;;;;;;5177772;28;20049;-67
2022/05/02 08:30:09;;;;;;;38.60;24.20;;;13.80;99.90;;;;;;5186407;28;20052;-68
2022/05/02 08:32:59;;;;;;;30.90;19.42;;;13.80;99.90;;;;;;5186002;28;20559;-69
2022/05/02 08:36:03;;;;;;;29.33;19.13;;;13.90;98.10;;;;;;5185937;28;20049;-67
2022/05/02 08:38:56;;;;;;;28.35;19.60;;;13.80;98.00;;;;;;5178757;28;20064;-67
2022/05/02 08:41:30;;;;;;;30.30;19.98;;;13.80;98.40;;;;;;5185872;28;20052;-66
2022/05/02 08:44:21;;;;;;;31.55;19.65;;;13.90;99.30;;;;;;5187118;28;20401;-67
2022/05/02 08:47:12;;;;;;;27.25;18.45;;;14.00;99.40;;;;;;5183327;28;20140;-67
2022/05/02 08:50:19;;;;;;;30.35;20.80;;;14.20;97.70;;;;;;5186717;28;20057;-67
2022/05/02 08:53:12;;;;;;;29.42;20.13;;;14.20;95.40;;;;;;5184441;28;20497;-68
2022/05/02 08:56:22;;;;;;;29.15;19.52;;;14.10;97.80;;;;;;5185226;28;20046;-68
2022/05/02 08:59:25;;;;;;;27.33;19.23;;;14.20;96.90;;;;;;5176879;28;20063;-68
2022/05/02 09:02:04;;;;;;;27.10;18.83;;;14.20;95.50;;;;;;5185924;28;20057;-68
2022/05/02 09:05:19;;;;;;;28.50;19.17;;;14.40;96.80;;;;;;5189420;28;20057;-68
2022/05/02 09:08:13;;;;;;;33.00;20.23;;;14.50;94.70;;;;;;5161908;28;20061;-68
2022/05/02 09:10:51;;;;;;;26.33;18.80;;;14.60;93.40;;;;;;5190300;28;20401;-67
2022/05/02 09:13:24;;;;;;;29.00;19.17;;;14.60;93.50;;;;;;5189627;28;20431;-67
2022/05/02 09:16:27;;;;;;;26.50;18.83;;;14.70;93.20;;;;;;5187764;28;20057;-67
2022/05/02 09:19:12;;;;;;;25.17;18.23;;;14.70;92.30;;;;;;5187049;28;20045;-68
2022/05/02 09:22:22;;;;;;;27.40;18.88;;;14.80;92.50;;;;;;5188275;28;20060;-69
2022/05/02 09:25:10;;;;;;;28.67;19.42;;;14.70;92.50;;;;;;5187836;28;20442;-66
2022/05/02 09:28:02;;;;;;;25.13;18.50;;;14.70;92.50;;;;;;5190288;28;20499;-68
2022/05/02 09:30:58;;;;;;;28.98;18.42;;;14.70;93.00;;;;;;5188601;28;20060;-67
2022/05/02 09:33:35;;;;;;;28.70;18.67;;;14.80;91.70;;;;;;5189248;28;20759;-70
2022/05/02 09:36:13;;;;;;;27.17;18.85;;;14.80;91.10;;;;;;5188623;28;20050;-69
2022/05/02 09:39:22;;;;;;;30.02;20.77;;;15.00;90.90;;;;;;5187349;28;20509;-69
2022/05/02 09:42:07;;;;;;;30.50;20.23;;;15.10;90.70;;;;;;5186708;28;20064;-69
2022/05/02 09:51:16;;;;;;;28.15;18.52;;;15.10;90.00;;;;;;5177495;28;20136;-67
2022/05/02 09:54:00;;;;;;;22.08;16.70;;;15.10;90.20;;;;;;5188909;28;20096;-68
2022/05/02 09:56:59;;;;;;;21.50;16.00;;;15.20;90.10;;;;;;5191243;28;20051;-69
2022/05/02 09:59:38;;;;;;;23.83;17.08;;;15.40;86.40;;;;;;5167616;28;20178;-69
2022/05/02 10:02:19;;;;;;;25.25;18.73;;;15.40;87.20;;;;;;5186412;28;20045;-69
2022/05/02 10:05:08;;;;;;;25.77;19.42;;;15.40;86.00;;;;;;5189075;28;20076;-68
2022/05/02 10:07:50;;;;;;;22.58;16.30;;;15.20;86.40;;;;;;5171759;28;20545;-69
2022/05/02 10:10:45;;;;;;;24.80;16.73;;;15.50;88.70;;;;;;5189037;28;20052;-70
2022/05/02 10:13:39;;;;;;;19.50;15.23;;;15.90;85.50;;;;;;5187508;28;20068;-68
2022/05/02 10:16:50;;;;;;;17.88;12.98;;;16.10;85.00;;;;;;5188797;28;20054;-69
2022/05/02 10:19:31;;;;;;;14.85;11.48;;;16.10;79.60;;;;;;5186453;28;20064;-68
2022/05/02 10:22:30;;;;;;;18.63;13.25;;;16.10;81.80;;;;;;5187102;28;20579;-70
2022/05/02 10:25:06;;;;;;;20.25;12.60;;;16.20;81.60;;;;;;5186831;28;20064;-70
2022/05/02 10:27:58;;;;;;;21.70;16.80;;;16.10;79.80;;;;;;5188641;28;20053;-69
2022/05/02 10:30:48;;;;;;;23.50;18.05;;;16.00;82.80;;;;;;5186499;28;20064;-69
2022/05/02 10:33:30;;;;;;;15.43;11.80;;;16.20;84.80;;;;;;5189679;28;20045;-68
2022/05/02 10:36:05;;;;;;;16.15;10.98;;;16.10;80.80;;;;;;5203214;28;20056;-67
2022/05/02 10:38:51;;;;;;;23.45;17.52;;;16.20;80.50;;;;;;5209343;23;20033;-75
2022/05/02 10:41:29;;;;;;;21.75;17.75;;;16.50;82.70;;;;;;5197012;28;20485;-75
2022/05/02 10:44:06;;;;;;;23.75;17.05;;;16.50;82.00;;;;;;5206885;28;20060;-76
2022/05/02 10:46:42;;;;;;;23.60;16.63;;;16.60;82.50;;;;;;5212570;28;20280;-75
2022/05/02 10:49:25;;;;;;;23.48;17.40;;;16.60;82.20;;;;;;5205462;28;20037;-75
2022/05/02 10:52:44;;;;;;;20.43;15.73;;;16.50;81.60;;;;;;5209919;28;20048;-76
2022/05/02 10:55:31;;;;;;;15.75;10.93;;;16.60;79.70;;;;;;5118418;28;20310;-75
2022/05/02 10:58:05;;;;;;;18.27;14.60;;;16.70;78.10;;;;;;5140637;28;20053;-76
2022/05/02 11:00:56;;;;;;;21.70;16.25;;;16.50;79.60;;;;;;5127746;28;20435;-75
2022/05/02 11:03:54;;;;;;;20.55;15.02;;;16.60;80.00;;;;;;5125534;28;20459;-76
2022/05/02 11:06:48;;;;;;;17.98;14.52;;;16.70;80.40;;;;;;5111157;28;20055;-74
2022/05/02 11:09:40;;;;;;;18.52;13.73;;;16.60;78.20;;;;;;5110278;28;20055;-73
2022/05/02 11:12:15;;;;;;;18.80;13.35;;;16.60;78.90;;;;;;5099711;28;20050;-75
2022/05/02 11:15:13;;;;;;;19.02;13.65;;;16.80;79.80;;;;;;5086129;28;20058;-74
2022/05/02 11:18:07;;;;;;;15.35;11.85;;;17.20;76.80;;;;;;5091165;28;20055;-75
2022/05/02 11:20:51;;;;;;;17.08;11.23;;;17.70;76.40;;;;;;5097742;28;20061;-76
2022/05/02 11:23:42;;;;;;;;;;;17.90;73.40;;;;;;5095565;28;20063;-74
2022/05/02 11:26:40;;;;;;;14.77;10.77;;;17.90;72.90;;;;;;5082689;28;19937;-77
2022/05/02 11:29:22;;;;;;;13.55;11.10;;;18.30;72.10;;;;;;5090544;28;20055;-77
2022/05/02 11:32:09;;;;;;;12.70;10.57;;;18.30;70.30;;;;;;5101328;28;20146;-76
2022/05/02 11:35:04;;;;;;;13.68;10.88;;;18.10;72.00;;;;;;5121015;28;20435;-76
2022/05/02 11:38:11;;;;;;;12.15;9.05;;;18.30;70.70;;;;;;5113578;28;20440;-76
2022/05/02 11:40:47;;;;;;;13.38;10.98;;;18.80;70.50;;;;;;5104781;28;20047;-75
2022/05/02 11:43:22;;;;;;;13.75;11.45;;;18.70;68.80;;;;;;5097038;28;20605;-75
2022/05/02 11:46:12;;;;;;;11.75;10.50;;;18.40;69.40;;;;;;5099061;28;20631;-77
2022/05/02 11:48:54;;;;;;;14.32;10.25;;;18.30;69.50;;;;;;5103672;28;20051;-76
2022/05/02 11:51:29;;;;;;;14.35;11.98;;;18.00;71.00;;;;;;5098703;28;20051;-75
2022/05/02 11:54:12;;;;;;;13.00;11.13;;;17.60;71.90;;;;;;5105020;28;20047;-77
2022/05/02 11:57:17;;;;;;;13.70;11.23;;;17.50;73.50;;;;;;5120169;28;20058;-74
2022/05/02 11:59:53;;;;;;;;;;;17.40;73.00;;;;;;5102667;28;20051;-75
2022/05/02 12:02:38;;;;;;;14.95;12.13;;;17.60;73.90;;;;;;5091843;28;19926;-76
2022/05/02 12:05:15;;;;;;;13.10;11.10;;;18.00;71.10;;;;;;5105047;28;20055;-76
2022/05/02 12:07:53;;;;;;;14.35;12.25;;;18.50;72.00;;;;;;5097226;28;20058;-73
2022/05/02 12:10:39;;;;;;;14.10;11.63;;;18.90;70.00;;;;;;5080711;28;20059;-77
2022/05/02 12:13:14;;;;;;;17.00;11.57;;;19.10;68.80;;;;;;5094127;28;20039;-74
2022/05/02 12:15:56;;;;;;;15.70;13.18;;;19.00;69.90;;;;;;5095018;28;20047;-78
2022/05/02 12:18:46;;;;;;;16.20;11.98;;;19.10;68.50;;;;;;5090599;28;20406;-74
2022/05/02 12:21:24;;;;;;;14.07;11.70;;;19.60;67.50;;;;;;5086621;28;20353;-76
2022/05/02 12:23:59;;;;;;;19.88;10.13;;;20.10;66.40;;;;;;5087674;28;20054;-76
2022/05/02 12:26:34;;;;;;;13.98;11.50;;;19.90;65.80;;;;;;5096738;28;20510;-75
2022/05/02 12:29:17;;;;;;;14.02;12.35;;;19.50;66.80;;;;;;5099057;28;20055;-76
2022/05/02 12:31:58;;;;;;;15.23;13.07;;;18.90;67.30;;;;;;5085368;28;20055;-74
2022/05/02 12:34:35;;;;;;;17.02;13.88;;;18.40;69.30;;;;;;5096101;28;21294;-74
2022/05/02 12:37:33;;;;;;;18.08;13.20;;;18.10;70.90;;;;;;5081070;28;20060;-74
2022/05/02 12:40:13;;;;;;;17.15;12.13;;;18.00;71.40;;;;;;5093713;28;20050;-75
2022/05/02 12:42:55;;;;;;;12.27;9.85;;;18.10;71.30;;;;;;5093160;28;20055;-77
2022/05/02 12:45:40;;;;;;;8.50;7.63;;;18.40;69.60;;;;;;5092981;28;20173;-76
2022/05/02 12:48:21;;;;;;;11.70;8.90;;;19.00;67.90;;;;;;5093578;28;20066;-76
2022/05/02 12:50:56;;;;;;;8.27;7.13;;;19.60;65.30;;;;;;5095707;28;20514;-75
2022/05/02 12:56:20;;;;;;;9.07;7.93;;;20.40;62.90;;;;;;5092480;28;20043;-76
2022/05/02 13:01:50;;;;;;;8.38;7.55;;;20.90;62.60;;;;;;5114508;28;20480;-79
2022/05/02 13:04:23;;;;;;;10.40;8.10;;;21.30;60.90;;;;;;5098409;28;20051;-80
2022/05/02 13:06:58;;;;;;;11.00;9.40;;;21.40;61.30;;;;;;5083775;28;21058;-80
2022/05/02 13:09:39;;;;;;;9.48;8.25;;;21.50;61.70;;;;;;5100154;28;20330;-78
2022/05/02 13:12:13;;;;;;;8.90;8.00;;;21.20;61.70;;;;;;5105799;28;20059;-79
2022/05/02 13:14:46;;;;;;;;;;;20.70;62.10;;;;;;5107166;28;20058;-78
2022/05/02 13:17:21;;;;;;;9.65;7.28;;;20.10;61.10;;;;;;5102805;28;19946;-80
2022/05/02 13:19:55;;;;;;;8.20;7.13;;;20.00;63.90;;;;;;5100158;28;20047;-80
2022/05/02 13:22:58;;;;;;;7.90;7.00;;;19.80;63.90;;;;;;5098565;28;20059;-76
2022/05/02 13:25:49;;;;;;;8.32;6.65;;;19.70;63.40;;;;;;5086024;28;20059;-77
2022/05/02 13:28:32;;;;;;;8.18;7.05;;;19.60;63.30;;;;;;5095841;28;20055;-77
2022/05/02 13:31:46;;;;;;;13.98;7.95;;;19.70;63.60;;;;;;5112113;28;20055;-78
2022/05/02 13:34:49;;;;;;;12.90;8.13;;;19.60;62.50;;;;;;5088358;28;20055;-77
2022/05/02 13:37:49;;;;;;;12.00;6.72;;;19.80;62.70;;;;;;5095146;28;20406;-79
2022/05/02 13:40:34;;;;;;;8.27;6.70;;;20.00;62.40;;;;;;5075925;29;20062;-77
2022/05/02 13:43:36;;;;;;;6.63;5.78;;;20.30;62.90;;;;;;5103522;28;20046;-78
2022/05/02 13:46:20;;;;;;;7.20;5.38;;;20.60;58.90;;;;;;5101380;28;21464;-78
2022/05/02 13:49:46;;;;;;;7.22;5.70;;;21.00;61.40;;;;;;5087672;28;20047;-80
2022/05/02 13:52:46;;;;;;;6.47;5.47;;;21.60;60.00;;;;;;5095034;28;20042;-79
2022/05/02 13:55:51;;;;;;;5.90;5.30;;;21.80;59.60;;;;;;5093079;28;20047;-79
2022/05/02 13:58:56;;;;;;;9.60;5.93;;;22.00;57.80;;;;;;5122519;28;20047;-78
2022/05/02 14:01:54;;;;;;;7.50;6.18;;;22.20;56.70;;;;;;5095671;28;20290;-74
2022/05/02 14:07:14;;;;;;;6.55;5.35;;;22.20;57.80;;;;;;5116303;28;20329;-80
2022/05/02 14:09:53;;;;;;;6.78;6.05;;;21.90;59.10;;;;;;5125011;28;20047;-78
2022/05/02 14:12:27;;;;;;;8.90;5.93;;;22.10;58.90;;;;;;5098699;28;20043;-78
2022/05/02 14:15:02;;;;;;;;;;;21.60;59.20;;;;;;5106470;28;20047;-75
2022/05/02 14:17:46;;;;;;;9.35;4.93;;;21.40;58.50;;;;;;5091262;28;20437;-77